Time;durP1;ratioP1;P1;durP2;ratioP2;P2;SDS_P1;SDS_P2;PMS_P1;PMS_P2;Temp;Humidity;BMP_temperature;BMP_pressure;BME280_temperature;BME280_humidity;BME280_pressure;Samples;Min_cycle;Max_cycle;Signal;HPM_P1;HPM_P2
2022/09/10 00:00:32;;;;;;;5.43;1.48;;;;;;;18.69;60.89;100849.13;5084369;28;20048;-67
2022/09/10 00:03:01;;;;;;;4.03;1.55;;;;;;;18.68;60.75;100855.69;5084968;28;20045;-67
2022/09/10 00:05:30;;;;;;;6.35;2.13;;;;;;;18.68;60.98;100847.50;5092448;28;20068;-67
2022/09/10 00:07:58;;;;;;;8.60;2.20;;;;;;;18.68;60.91;100846.69;5087887;28;20059;-67
2022/09/10 00:10:26;;;;;;;4.63;1.80;;;;;;;18.67;60.71;100845.88;5092788;28;20055;-67
2022/09/10 00:12:54;;;;;;;4.30;1.60;;;;;;;18.66;60.76;100843.44;5083733;28;20048;-67
2022/09/10 00:15:22;;;;;;;4.10;1.52;;;;;;;18.65;61.09;100842.63;5081788;28;20056;-67
2022/09/10 00:17:50;;;;;;;6.55;2.80;;;;;;;18.65;61.02;100842.63;5081836;28;20048;-67
2022/09/10 00:20:17;;;;;;;7.97;1.73;;;;;;;18.65;60.88;100841.81;5084508;28;20421;-67
2022/09/10 00:22:47;;;;;;;4.07;1.63;;;;;;;18.63;60.83;100839.34;5087245;28;20074;-68
2022/09/10 00:25:15;;;;;;;3.28;1.70;;;;;;;18.64;61.02;100840.16;5070498;28;20053;-67
2022/09/10 00:27:43;;;;;;;5.32;1.70;;;;;;;18.64;61.06;100837.44;5082550;28;20059;-67
2022/09/10 00:30:11;;;;;;;7.97;1.85;;;;;;;18.62;60.97;100839.63;5086207;28;20056;-67
2022/09/10 00:32:39;;;;;;;8.60;2.22;;;;;;;18.59;60.99;100840.16;5083263;28;20059;-67
2022/09/10 00:35:07;;;;;;;5.63;2.28;;;;;;;18.62;61.27;100839.63;5086946;28;20044;-67
2022/09/10 00:37:36;;;;;;;4.75;1.58;;;;;;;18.60;61.27;100842.59;5081469;28;20048;-67
2022/09/10 00:40:08;;;;;;;5.05;2.00;;;;;;;18.60;61.19;100841.78;5073667;28;20067;-67
2022/09/10 00:42:35;;;;;;;4.97;1.58;;;;;;;18.60;61.02;100837.16;5085721;28;20052;-67
2022/09/10 00:45:04;;;;;;;5.47;1.50;;;;;;;18.60;61.19;100839.06;5083067;28;20056;-67
2022/09/10 00:47:37;;;;;;;5.80;2.22;;;;;;;18.59;61.11;100834.72;5084342;28;20059;-67
2022/09/10 00:50:12;;;;;;;4.70;2.17;;;;;;;18.58;61.07;100841.25;5067002;28;20068;-67
2022/09/10 00:52:40;;;;;;;6.05;1.98;;;;;;;18.59;61.10;100834.72;5081934;28;20049;-67
2022/09/10 00:55:12;;;;;;;7.57;2.10;;;;;;;18.58;60.99;100831.16;5081045;28;20056;-67
2022/09/10 00:57:41;;;;;;;5.75;1.75;;;;;;;18.58;60.91;100833.06;5083215;28;20060;-67
2022/09/10 01:00:12;;;;;;;6.40;1.90;;;;;;;18.57;61.31;100834.97;5071537;28;20045;-67
2022/09/10 01:02:40;;;;;;;5.22;1.85;;;;;;;18.58;61.00;100838.50;5082674;28;20041;-67
2022/09/10 01:05:10;;;;;;;4.38;2.22;;;;;;;18.57;61.33;100839.59;5084662;28;20044;-67
2022/09/10 01:07:39;;;;;;;5.03;2.00;;;;;;;18.58;61.00;100846.69;5081103;28;20052;-67
2022/09/10 01:10:11;;;;;;;3.72;1.92;;;;;;;18.57;61.01;100851.31;5079918;28;20052;-67
2022/09/10 01:12:57;;;;;;;7.25;2.00;;;;;;;18.57;61.20;100839.59;5079321;28;20045;-67
2022/09/10 01:15:35;;;;;;;4.13;1.85;;;;;;;18.57;61.20;100847.78;5079114;28;20403;-67
2022/09/10 01:18:17;;;;;;;5.75;2.33;;;;;;;18.54;61.39;100849.94;5088038;28;20048;-67
2022/09/10 01:20:55;;;;;;;8.30;1.98;;;;;;;18.55;60.98;100856.22;5078782;28;20044;-66
2022/09/10 01:23:59;;;;;;;5.82;1.90;;;;;;;18.54;61.24;100855.41;5076492;28;20439;-66
2022/09/10 01:26:44;;;;;;;4.60;2.05;;;;;;;18.55;61.10;100858.94;5083502;28;20045;-67
2022/09/10 01:29:21;;;;;;;5.05;2.03;;;;;;;18.54;61.15;100854.59;5066928;28;20060;-66
2022/09/10 01:31:54;;;;;;;6.40;1.95;;;;;;;18.54;61.14;100849.13;5077561;28;20506;-67
2022/09/10 01:34:28;;;;;;;6.53;2.10;;;;;;;18.53;61.35;100852.94;5076078;28;20040;-67
2022/09/10 01:37:01;;;;;;;6.72;2.03;;;;;;;18.52;61.29;100851.31;5075118;28;20044;-67
2022/09/10 01:39:30;;;;;;;5.22;2.20;;;;;;;18.51;61.43;100850.50;5085508;28;20060;-67
2022/09/10 01:41:58;;;;;;;6.57;2.65;;;;;;;18.51;61.43;100844.25;5084046;28;20052;-66
2022/09/10 01:44:46;;;;;;;4.38;2.15;;;;;;;18.51;61.24;100846.97;5080721;28;20045;-67
2022/09/10 01:47:20;;;;;;;3.65;1.92;;;;;;;18.49;61.06;100849.97;5068294;28;20048;-67
2022/09/10 01:50:06;;;;;;;7.78;2.75;;;;;;;18.49;61.13;100847.25;5087676;28;20050;-67
2022/09/10 01:52:42;;;;;;;6.53;2.25;;;;;;;18.49;61.20;100849.97;5092116;28;20040;-67
2022/09/10 01:55:19;;;;;;;6.72;2.20;;;;;;;18.49;61.35;100849.97;5067064;28;20052;-67
2022/09/10 01:57:54;;;;;;;9.18;2.42;;;;;;;18.49;61.20;100846.44;5068806;28;20048;-67
2022/09/10 02:00:25;;;;;;;8.63;2.47;;;;;;;18.47;61.33;100841.25;5065783;28;20045;-67
2022/09/10 02:02:58;;;;;;;7.47;2.20;;;;;;;18.48;61.48;100842.06;5083734;28;20604;-67
2022/09/10 02:05:30;;;;;;;6.47;2.35;;;;;;;18.46;61.34;100841.53;5084258;28;20059;-67
2022/09/10 02:08:02;;;;;;;5.43;2.22;;;;;;;18.47;61.70;100838.53;5085060;28;20060;-67
2022/09/10 02:10:30;;;;;;;6.03;1.98;;;;;;;18.45;61.87;100834.47;5083906;28;20044;-67
2022/09/10 02:12:58;;;;;;;8.75;2.55;;;;;;;18.45;61.43;100838.00;5073619;28;20056;-67
2022/09/10 02:15:31;;;;;;;4.20;1.88;;;;;;;18.46;61.50;100839.63;5070056;28;20393;-67
2022/09/10 02:18:00;;;;;;;6.72;2.45;;;;;;;18.44;61.54;100830.09;5075145;28;20051;-67
2022/09/10 02:20:29;;;;;;;5.18;2.20;;;;;;;18.43;61.59;100837.44;5084800;28;20048;-66
2022/09/10 02:22:59;;;;;;;5.88;2.45;;;;;;;18.43;61.85;100832.00;5078069;28;20057;-66
2022/09/10 02:25:33;;;;;;;5.35;2.08;;;;;;;18.43;61.78;100831.19;5085767;28;20052;-67
2022/09/10 02:28:00;;;;;;;6.60;2.38;;;;;;;18.44;61.58;100832.81;5083792;28;20722;-66
2022/09/10 02:30:29;;;;;;;8.10;2.30;;;;;;;18.42;61.70;100824.13;5064998;28;20052;-66
2022/09/10 02:32:57;;;;;;;6.45;2.25;;;;;;;18.42;61.36;100830.38;5086882;28;20048;-66
2022/09/10 02:35:25;;;;;;;5.30;2.35;;;;;;;18.42;61.60;100819.50;5073932;28;20045;-66
2022/09/10 02:37:52;;;;;;;4.82;2.80;;;;;;;18.42;61.54;100830.38;5072801;28;20072;-66
2022/09/10 02:40:20;;;;;;;4.70;2.28;;;;;;;18.41;61.80;100826.03;5080710;28;20056;-66
2022/09/10 02:42:48;;;;;;;5.65;2.15;;;;;;;18.42;61.96;100824.13;5082774;28;20052;-66
2022/09/10 02:45:16;;;;;;;6.95;2.58;;;;;;;18.41;62.11;100820.59;5085282;28;20481;-66
2022/09/10 02:47:45;;;;;;;6.65;3.38;;;;;;;18.42;61.96;100826.84;5074011;28;20053;-66
2022/09/10 02:50:12;;;;;;;6.05;2.70;;;;;;;18.42;61.80;100829.56;5064608;28;20045;-66
2022/09/10 02:52:40;;;;;;;5.72;2.30;;;;;;;18.42;61.85;100824.13;5081368;28;20048;-68
2022/09/10 02:55:08;;;;;;;6.95;2.67;;;;;;;18.42;61.70;100829.56;5079227;28;20052;-67
2022/09/10 02:57:36;;;;;;;7.22;2.70;;;;;;;18.42;61.70;100830.38;5064910;28;20052;-67
2022/09/10 03:00:04;;;;;;;7.00;3.03;;;;;;;18.42;61.81;100826.84;5076162;28;20048;-66
2022/09/10 03:02:32;;;;;;;4.60;2.50;;;;;;;18.39;62.01;100822.75;5079040;28;20153;-67
2022/09/10 03:05:03;;;;;;;9.48;3.70;;;;;;;18.41;61.80;100828.75;5087035;28;20052;-67
2022/09/10 03:07:31;;;;;;;4.22;2.20;;;;;;;18.41;61.93;100831.47;5077192;28;20112;-67
2022/09/10 03:09:59;;;;;;;6.25;2.47;;;;;;;18.41;62.33;100828.75;5077744;28;20507;-68
2022/09/10 03:12:26;;;;;;;3.60;2.13;;;;;;;18.41;62.23;100827.94;5087965;28;20045;-67
2022/09/10 03:14:56;;;;;;;5.78;2.65;;;;;;;18.40;62.16;100826.28;5079100;28;20045;-67
2022/09/10 03:17:24;;;;;;;4.97;2.15;;;;;;;18.40;61.96;100829.84;5089431;28;20528;-67
2022/09/10 03:19:52;;;;;;;8.65;2.92;;;;;;;18.39;62.36;100828.19;5080261;28;20055;-67
2022/09/10 03:22:21;;;;;;;7.30;3.25;;;;;;;18.39;62.26;100828.19;5087873;28;20083;-67
2022/09/10 03:24:49;;;;;;;5.03;2.50;;;;;;;18.40;62.12;100834.47;5074522;28;20048;-67
2022/09/10 03:27:16;;;;;;;5.90;2.25;;;;;;;18.39;62.43;100830.09;5088648;28;20058;-67
2022/09/10 03:29:44;;;;;;;5.97;3.15;;;;;;;18.38;62.54;100832.00;5077876;28;20048;-67
2022/09/10 03:32:12;;;;;;;9.23;3.35;;;;;;;18.38;62.81;100832.00;5072362;28;20057;-69
2022/09/10 03:34:39;;;;;;;6.20;2.70;;;;;;;18.39;62.72;100832.84;5082388;28;20045;-67
2022/09/10 03:37:07;;;;;;;7.88;3.13;;;;;;;18.38;62.51;100831.19;5082400;28;20075;-67
2022/09/10 03:39:36;;;;;;;7.88;2.70;;;;;;;18.38;62.68;100831.19;5086490;28;20060;-67
2022/09/10 03:42:04;;;;;;;6.82;2.20;;;;;;;18.37;62.46;100821.41;5090182;28;20048;-67
2022/09/10 03:44:32;;;;;;;4.95;2.40;;;;;;;18.37;62.23;100822.22;5086952;28;20044;-67
2022/09/10 03:47:00;;;;;;;4.82;3.03;;;;;;;18.36;62.56;100826.03;5080145;28;20056;-67
2022/09/10 03:49:28;;;;;;;5.90;2.65;;;;;;;18.34;63.06;100814.59;5081211;28;20059;-67
2022/09/10 03:51:56;;;;;;;6.72;2.90;;;;;;;18.35;62.63;100818.97;5087654;28;20064;-67
2022/09/10 03:54:23;;;;;;;9.27;3.22;;;;;;;18.35;62.39;100820.88;5087272;28;20053;-67
2022/09/10 03:56:52;;;;;;;7.82;3.08;;;;;;;18.34;62.74;100820.03;5089200;28;20047;-67
2022/09/10 03:59:20;;;;;;;7.95;2.85;;;;;;;18.34;62.79;100819.22;5073332;28;20079;-67
2022/09/10 04:01:49;;;;;;;5.95;2.65;;;;;;;18.34;62.77;100813.78;5080273;28;20045;-67
2022/09/10 04:04:17;;;;;;;7.32;3.33;;;;;;;18.34;62.63;100819.22;5079456;28;20064;-67
2022/09/10 04:06:44;;;;;;;6.75;2.78;;;;;;;18.32;62.68;100811.34;5076543;28;20044;-67
2022/09/10 04:09:12;;;;;;;11.00;3.20;;;;;;;18.32;62.97;100821.41;5072910;28;20048;-67
2022/09/10 04:11:40;;;;;;;6.65;2.70;;;;;;;18.33;62.59;100812.16;5084773;28;20047;-67
2022/09/10 04:14:09;;;;;;;5.63;2.80;;;;;;;18.31;62.73;100811.63;5071270;28;20057;-67
2022/09/10 04:16:37;;;;;;;6.80;3.00;;;;;;;18.31;62.78;100808.91;5068581;28;20052;-67
2022/09/10 04:19:04;;;;;;;6.05;2.83;;;;;;;18.31;62.69;100814.34;5079692;28;20486;-67
2022/09/10 04:21:32;;;;;;;6.88;2.97;;;;;;;18.31;62.66;100808.91;5080798;28;20049;-67
2022/09/10 04:24:00;;;;;;;6.72;2.80;;;;;;;18.31;62.92;100811.63;5076260;28;20139;-66
2022/09/10 04:26:27;;;;;;;7.57;3.72;;;;;;;18.30;62.78;100812.72;5085467;28;20040;-67
2022/09/10 04:28:55;;;;;;;7.57;3.30;;;;;;;18.30;62.69;100807.25;5077085;28;20053;-67
2022/09/10 04:31:24;;;;;;;7.85;2.58;;;;;;;18.29;62.89;100811.06;5083652;28;20059;-67
2022/09/10 04:33:52;;;;;;;4.28;2.65;;;;;;;18.29;62.95;100805.63;5083984;28;20052;-67
2022/09/10 04:36:20;;;;;;;9.40;3.10;;;;;;;18.29;62.74;100811.06;5079111;28;20051;-66
2022/09/10 04:38:47;;;;;;;5.63;2.53;;;;;;;18.28;62.95;100804.81;5086616;28;20047;-67
2022/09/10 04:41:17;;;;;;;7.88;2.70;;;;;;;18.29;62.76;100805.63;5079785;28;20053;-66
2022/09/10 04:43:44;;;;;;;6.88;2.95;;;;;;;18.29;62.74;100802.91;5094026;28;20044;-66
2022/09/10 04:46:12;;;;;;;7.00;2.75;;;;;;;18.28;63.19;100812.97;5074339;28;20258;-66
2022/09/10 04:48:41;;;;;;;10.88;3.58;;;;;;;18.29;63.36;100816.50;5079469;28;20051;-67
2022/09/10 04:51:12;;;;;;;5.43;2.85;;;;;;;18.29;63.19;100816.50;5078863;28;20044;-67
2022/09/10 04:53:45;;;;;;;7.68;3.40;;;;;;;18.27;63.09;100810.53;5083328;28;20040;-67
2022/09/10 04:56:13;;;;;;;11.02;4.13;;;;;;;18.28;63.05;100817.59;5071746;28;20063;-67
2022/09/10 04:58:40;;;;;;;9.13;3.17;;;;;;;18.28;63.18;100814.88;5085530;28;20063;-67
2022/09/10 05:01:09;;;;;;;4.63;2.70;;;;;;;18.27;62.97;100813.25;5081549;28;20051;-67
2022/09/10 05:03:36;;;;;;;7.03;3.00;;;;;;;18.28;63.07;100820.31;5045837;28;1093736;-66
2022/09/10 05:06:06;;;;;;;8.18;3.92;;;;;;;18.27;62.93;100824.13;5082579;28;20059;-67
2022/09/10 05:08:34;;;;;;;6.05;2.83;;;;;;;18.29;63.02;100821.97;5085798;28;20049;-68
2022/09/10 05:11:02;;;;;;;7.15;2.90;;;;;;;18.29;62.95;100819.25;5080193;28;20036;-66
2022/09/10 05:13:30;;;;;;;8.38;2.92;;;;;;;18.30;63.14;100812.72;5080183;28;20052;-67
2022/09/10 05:15:58;;;;;;;6.93;3.10;;;;;;;18.37;62.55;100815.97;5076830;28;20044;-67
2022/09/10 05:18:26;;;;;;;5.60;2.58;;;;;;;18.33;62.95;100817.59;5071591;28;20063;-67
2022/09/10 05:20:54;;;;;;;6.20;3.08;;;;;;;18.32;62.85;100821.41;5089341;28;20040;-67
2022/09/10 05:23:23;;;;;;;4.65;2.65;;;;;;;18.31;62.85;100814.34;5090174;28;20048;-66
2022/09/10 05:25:50;;;;;;;6.95;3.65;;;;;;;18.30;62.89;100818.16;5090190;28;20051;-67
2022/09/10 05:28:19;;;;;;;7.30;3.03;;;;;;;18.30;63.04;100818.16;5079038;28;20064;-67
2022/09/10 05:30:47;;;;;;;7.72;3.10;;;;;;;18.29;62.96;100817.31;5078792;28;20063;-67
2022/09/10 05:33:18;;;;;;;9.45;3.70;;;;;;;18.30;63.03;100815.44;5091412;28;20053;-66
2022/09/10 05:35:50;;;;;;;7.80;3.20;;;;;;;18.25;63.21;100816.25;5081375;28;20052;-66
2022/09/10 05:38:18;;;;;;;7.30;4.10;;;;;;;18.28;62.91;100815.69;5084414;28;20047;-67
2022/09/10 05:40:47;;;;;;;8.50;3.78;;;;;;;18.28;62.87;100823.03;5081070;28;20071;-65
2022/09/10 05:43:15;;;;;;;5.97;3.20;;;;;;;18.27;62.89;100819.50;5088263;28;20060;-66
2022/09/10 05:45:43;;;;;;;8.38;3.53;;;;;;;18.27;63.06;100821.41;5084239;28;20067;-69
2022/09/10 05:48:10;;;;;;;7.47;3.22;;;;;;;18.27;63.08;100824.13;5084727;28;20049;-68
2022/09/10 05:50:38;;;;;;;8.23;3.70;;;;;;;18.26;63.27;100834.19;5080595;28;20058;-67
2022/09/10 05:53:06;;;;;;;7.70;3.65;;;;;;;18.26;63.21;100834.19;5071042;28;20045;-68
2022/09/10 05:55:33;;;;;;;6.88;3.55;;;;;;;18.27;63.17;100838.56;5076991;28;20052;-68
2022/09/10 05:58:03;;;;;;;7.03;3.83;;;;;;;18.26;63.28;100833.38;4724208;28;9999814;-67
2022/09/10 06:00:30;;;;;;;6.13;3.67;;;;;;;18.26;63.37;100828.75;5079040;28;20413;-67
2022/09/10 06:02:58;;;;;;;7.47;4.10;;;;;;;18.26;63.21;100826.03;5078456;28;20059;-68
2022/09/10 06:05:26;;;;;;;7.13;3.60;;;;;;;18.27;63.40;100835.00;5080591;28;20074;-64
2022/09/10 06:07:55;;;;;;;9.48;4.32;;;;;;;18.25;64.94;100845.34;5075110;28;20470;-67
2022/09/10 06:10:23;;;;;;;9.93;4.72;;;;;;;18.24;64.38;100833.66;5080043;28;20056;-67
2022/09/10 06:12:51;;;;;;;7.05;4.05;;;;;;;18.28;64.25;100839.38;5061888;28;20425;-67
2022/09/10 06:15:21;;;;;;;7.65;3.83;;;;;;;18.27;64.12;100832.28;5073021;28;20143;-67
2022/09/10 06:17:48;;;;;;;10.70;4.38;;;;;;;18.26;64.10;100833.38;5082771;28;20045;-67
2022/09/10 06:20:16;;;;;;;8.93;3.88;;;;;;;18.26;63.99;100844.28;5084355;28;20056;-68
2022/09/10 06:22:44;;;;;;;7.63;4.10;;;;;;;18.25;64.31;100839.91;5086817;28;20048;-67
2022/09/10 06:25:11;;;;;;;6.93;3.38;;;;;;;18.26;64.05;100836.91;5086370;28;20044;-68
2022/09/10 06:27:40;;;;;;;7.10;3.80;;;;;;;18.25;63.90;100837.19;5085652;28;20534;-68
2022/09/10 06:30:08;;;;;;;7.70;3.97;;;;;;;18.24;63.88;100846.44;5094943;28;20052;-68
2022/09/10 06:32:38;;;;;;;7.15;3.47;;;;;;;18.23;63.92;100837.47;5079599;28;20045;-68
2022/09/10 06:35:06;;;;;;;7.57;3.65;;;;;;;18.24;63.98;100833.66;5085999;28;20054;-68
2022/09/10 06:37:34;;;;;;;7.15;3.55;;;;;;;18.25;63.83;100843.44;5095359;28;20049;-68
2022/09/10 06:40:02;;;;;;;6.68;3.80;;;;;;;18.25;63.71;100842.63;5096029;28;20051;-68
2022/09/10 06:42:31;;;;;;;5.90;4.03;;;;;;;18.25;63.93;100848.88;5074546;28;20100;-68
2022/09/10 06:44:59;;;;;;;7.50;4.32;;;;;;;18.25;63.75;100848.88;5089943;28;20082;-68
2022/09/10 06:47:26;;;;;;;7.00;4.13;;;;;;;18.25;64.06;100848.06;5084388;28;20053;-68
2022/09/10 06:50:16;;;;;;;6.65;3.75;;;;;;;18.25;64.16;100848.88;5092245;28;20074;-68
2022/09/10 06:52:43;;;;;;;5.53;3.63;;;;;;;18.24;64.17;100849.97;5084142;28;20413;-69
2022/09/10 06:55:11;;;;;;;8.13;4.60;;;;;;;18.24;64.14;100847.25;5084235;28;20484;-69
2022/09/10 06:57:39;;;;;;;6.78;4.07;;;;;;;18.24;64.22;100851.88;5087747;28;20067;-68
2022/09/10 07:00:08;;;;;;;8.88;5.35;;;;;;;18.22;64.28;100838.56;5089306;28;20057;-68
2022/09/10 07:02:36;;;;;;;8.77;4.45;;;;;;;18.29;63.89;100852.69;5084600;28;20051;-69
2022/09/10 07:05:04;;;;;;;11.27;5.10;;;;;;;18.27;64.36;100854.06;5079506;28;20060;-69
2022/09/10 07:07:33;;;;;;;7.90;4.22;;;;;;;18.25;64.23;100853.50;5084930;28;20048;-69
2022/09/10 07:10:01;;;;;;;7.43;4.25;;;;;;;18.27;64.46;100848.63;5082837;28;20045;-69
2022/09/10 07:12:28;;;;;;;6.07;4.20;;;;;;;18.27;63.99;100862.22;5096711;28;20058;-68
2022/09/10 07:14:56;;;;;;;7.22;4.25;;;;;;;18.28;64.13;100861.13;5079582;28;20065;-68
2022/09/10 07:17:24;;;;;;;5.20;3.80;;;;;;;18.29;64.07;100860.03;5092525;28;20062;-69
2022/09/10 07:19:58;;;;;;;6.30;4.05;;;;;;;18.27;64.05;100854.06;5094570;28;20063;-69
2022/09/10 07:22:25;;;;;;;7.28;4.15;;;;;;;18.27;64.25;100857.59;5079742;28;20040;-69
2022/09/10 07:24:54;;;;;;;6.45;4.25;;;;;;;18.26;64.80;100864.13;5084186;28;20048;-69
2022/09/10 07:27:22;;;;;;;7.40;4.00;;;;;;;18.23;64.85;100861.94;5079728;28;20045;-69
2022/09/10 07:29:50;;;;;;;7.65;3.88;;;;;;;18.31;64.53;100866.84;5086741;28;20067;-69
2022/09/10 07:32:18;;;;;;;5.22;3.90;;;;;;;18.31;64.52;100871.47;5090031;28;20044;-69
2022/09/10 07:34:46;;;;;;;5.88;3.58;;;;;;;18.34;64.49;100866.31;5064137;28;20055;-69
2022/09/10 07:37:14;;;;;;;5.40;3.70;;;;;;;18.31;64.61;100872.28;5085356;28;20167;-69
2022/09/10 07:39:42;;;;;;;7.30;4.10;;;;;;;18.26;65.05;100869.56;5082170;28;20041;-69
2022/09/10 07:42:11;;;;;;;5.75;3.80;;;;;;;18.24;64.88;100871.75;4734204;28;10000882;-70
2022/09/10 07:44:38;;;;;;;6.43;4.53;;;;;;;18.24;65.67;100879.09;5066747;28;20052;-72
2022/09/10 07:47:06;;;;;;;7.10;3.67;;;;;;;18.23;65.47;100874.75;5072081;28;20145;-67
2022/09/10 07:49:34;;;;;;;7.72;4.57;;;;;;;18.21;65.77;100884.00;5075300;28;20056;-68
2022/09/10 07:52:03;;;;;;;6.38;3.80;;;;;;;18.21;65.95;100884.00;5070982;28;20053;-73
2022/09/10 07:54:30;;;;;;;9.00;4.93;;;;;;;18.19;66.21;100883.44;5090717;28;20466;-69
2022/09/10 07:56:58;;;;;;;7.18;4.25;;;;;;;18.20;65.91;100884.25;5098303;28;20260;-66
2022/09/10 07:59:27;;;;;;;9.40;4.38;;;;;;;18.19;66.42;100888.88;5101368;28;20055;-64
2022/09/10 08:01:55;;;;;;;12.25;4.82;;;;;;;18.18;66.35;100881.81;5086463;28;20053;-67
2022/09/10 08:04:23;;;;;;;6.63;4.28;;;;;;;18.18;66.42;100884.53;5091390;28;20114;-67
2022/09/10 08:06:51;;;;;;;7.47;4.22;;;;;;;18.18;66.54;100889.97;5089697;28;20496;-67
2022/09/10 08:09:19;;;;;;;9.10;4.03;;;;;;;18.18;66.26;100894.59;5081281;28;20048;-67
2022/09/10 08:11:46;;;;;;;12.52;5.43;;;;;;;18.18;66.10;100887.25;5086088;28;20052;-67
2022/09/10 08:14:15;;;;;;;5.25;3.53;;;;;;;18.17;65.83;100899.22;5095723;28;20490;-67
2022/09/10 08:16:44;;;;;;;7.80;3.85;;;;;;;18.16;66.36;100889.44;5087137;28;20048;-66
2022/09/10 08:19:12;;;;;;;6.32;3.83;;;;;;;18.18;66.48;100900.03;5094455;28;20052;-67
2022/09/10 08:21:40;;;;;;;8.18;3.92;;;;;;;18.18;66.71;100908.19;5093862;28;20107;-67
2022/09/10 08:24:10;;;;;;;7.18;4.28;;;;;;;18.18;66.48;100908.19;5079161;28;20048;-67
2022/09/10 08:26:38;;;;;;;6.53;3.83;;;;;;;18.18;66.61;100902.75;5076842;28;20054;-67
2022/09/10 08:29:05;;;;;;;5.80;3.50;;;;;;;18.26;66.50;100913.09;5077726;28;20052;-66
2022/09/10 08:31:33;;;;;;;5.05;3.60;;;;;;;18.21;66.52;100919.34;5075020;28;20045;-65
2022/09/10 08:34:03;;;;;;;7.45;3.70;;;;;;;18.21;66.89;100919.34;5086357;28;20075;-65
2022/09/10 08:36:30;;;;;;;19.35;5.03;;;;;;;18.24;66.88;100918.00;5085254;28;20063;-64
2022/09/10 08:38:58;;;;;;;55.58;9.15;;;;;;;18.37;66.29;100924.81;5080208;28;20052;-64
2022/09/10 08:41:41;;;;;;;81.07;12.25;;;;;;;18.35;68.47;100921.53;5084029;28;20052;-64
2022/09/10 08:44:15;;;;;;;74.80;12.20;;;;;;;18.30;68.74;100926.97;5078927;28;20055;-63
2022/09/10 08:46:47;;;;;;;60.03;12.20;;;;;;;18.25;68.38;100927.78;5081590;28;20052;-63
2022/09/10 08:49:23;;;;;;;60.80;11.00;;;;;;;18.23;68.19;100927.25;5071313;28;20432;-64
2022/09/10 08:51:56;;;;;;;54.05;9.50;;;;;;;18.29;67.89;100941.66;5076749;28;20055;-64
2022/09/10 08:54:31;;;;;;;34.63;9.25;;;;;;;18.32;67.82;100943.84;5071375;28;20056;-65
2022/09/10 08:57:02;;;;;;;29.70;8.25;;;;;;;18.32;67.96;100947.38;5077340;28;20056;-65
2022/09/10 08:59:34;;;;;;;30.05;8.20;;;;;;;18.28;67.85;100945.47;5075570;28;20056;-64
2022/09/10 09:02:15;;;;;;;24.52;6.05;;;;;;;18.31;67.69;100953.09;5075374;28;20060;-64
2022/09/10 09:05:12;;;;;;;18.92;5.55;;;;;;;18.35;67.31;100954.19;5068144;28;20083;-65
2022/09/10 09:07:40;;;;;;;19.00;5.53;;;;;;;18.26;67.54;100950.38;5072554;28;20063;-65
2022/09/10 09:10:19;;;;;;;14.52;4.70;;;;;;;18.26;67.77;100951.19;5072601;28;20049;-65
2022/09/10 09:13:03;;;;;;;15.18;4.68;;;;;;;18.29;67.97;100956.09;5078451;28;20049;-64
2022/09/10 09:15:40;;;;;;;15.63;4.97;;;;;;;18.27;67.74;100966.44;5076377;28;20373;-64
2022/09/10 09:18:20;;;;;;;11.27;4.25;;;;;;;18.42;67.68;100963.72;5077237;28;20060;-65
2022/09/10 09:20:55;;;;;;;11.30;4.88;;;;;;;18.35;67.53;100965.88;5078760;28;20048;-65
2022/09/10 09:23:25;;;;;;;11.32;4.22;;;;;;;18.33;67.50;100954.47;5075298;28;20044;-63
2022/09/10 09:25:57;;;;;;;10.05;4.20;;;;;;;18.33;67.69;100975.41;5081744;28;20077;-64
2022/09/10 09:28:40;;;;;;;9.75;4.30;;;;;;;18.32;67.40;100973.78;5072249;28;20048;-69
2022/09/10 09:31:13;;;;;;;8.05;3.65;;;;;;;18.39;67.45;100966.97;5080740;28;20071;-65
2022/09/10 09:33:44;;;;;;;8.60;3.67;;;;;;;18.37;67.26;100974.59;5073865;28;20040;-62
2022/09/10 09:36:16;;;;;;;5.88;3.20;;;;;;;18.37;67.10;100971.06;5077012;28;20063;-66
2022/09/10 09:38:49;;;;;;;6.72;3.92;;;;;;;18.38;67.85;100981.69;5085202;28;20052;-67
2022/09/10 09:41:24;;;;;;;14.55;4.50;;;;;;;18.52;67.33;100966.44;5082206;28;20056;-66
2022/09/10 09:43:58;;;;;;;7.68;3.75;;;;;;;18.49;67.32;100968.91;5078267;28;20044;-67
2022/09/10 09:46:25;;;;;;;5.57;2.83;;;;;;;18.42;67.35;100965.63;5073516;28;20061;-65
2022/09/10 09:48:58;;;;;;;5.93;3.20;;;;;;;18.39;67.43;100979.78;5076145;28;20045;-63
2022/09/10 09:51:34;;;;;;;6.05;3.55;;;;;;;18.37;67.85;100974.59;5080719;28;20055;-68
2022/09/10 09:54:07;;;;;;;9.07;3.25;;;;;;;18.57;68.32;100973.81;5073322;28;20093;-68
2022/09/10 09:56:58;;;;;;;6.72;3.40;;;;;;;18.46;67.65;100975.69;5076804;28;20045;-65
2022/09/10 09:59:28;;;;;;;6.93;3.22;;;;;;;18.44;67.34;100977.06;5080189;28;20056;-68
2022/09/10 10:02:00;;;;;;;9.00;3.42;;;;;;;18.42;67.29;100973.78;5067081;28;20063;-67
2022/09/10 10:04:30;;;;;;;7.03;3.08;;;;;;;18.41;67.38;100975.69;5079522;28;20079;-68
2022/09/10 10:07:00;;;;;;;8.85;3.60;;;;;;;18.39;67.69;100972.44;5067645;28;20365;-68
2022/09/10 10:09:30;;;;;;;8.95;4.10;;;;;;;18.40;67.81;100975.97;5079990;28;20055;-67
2022/09/10 10:12:00;;;;;;;10.90;3.50;;;;;;;18.59;67.68;100970.81;5095559;28;20044;-68
2022/09/10 10:14:38;;;;;;;5.10;3.20;;;;;;;18.51;67.53;100970.25;5091033;28;20048;-67
2022/09/10 10:17:37;;;;;;;8.30;3.60;;;;;;;18.50;67.78;100974.06;5091228;28;20071;-65
2022/09/10 10:20:11;;;;;;;6.75;3.63;;;;;;;18.44;67.79;100975.16;5040768;28;20045;-69
2022/09/10 10:22:42;;;;;;;10.68;4.25;;;;;;;18.39;68.32;100977.06;5040213;28;20053;-69
2022/09/10 10:25:35;;;;;;;6.68;4.38;;;;;;;18.50;67.67;100992.31;5043718;28;20041;-68
2022/09/10 10:28:03;;;;;;;9.27;4.35;;;;;;;18.65;67.45;100996.97;5046781;28;20110;-68
2022/09/10 10:30:31;;;;;;;9.40;4.32;;;;;;;18.55;67.88;100995.03;5041268;28;20069;-67
2022/09/10 10:33:01;;;;;;;7.60;4.20;;;;;;;18.73;67.56;100993.72;5040405;28;20060;-67
2022/09/10 10:35:34;;;;;;;9.93;4.57;;;;;;;18.69;67.57;100988.00;5036217;28;20050;-69
2022/09/10 10:38:24;;;;;;;8.82;4.07;;;;;;;18.62;68.54;100992.88;5042460;28;20059;-68
2022/09/10 10:41:18;;;;;;;6.75;3.63;;;;;;;18.62;68.10;100990.16;5037270;28;20052;-68
2022/09/10 10:43:54;;;;;;;9.35;4.10;;;;;;;18.64;68.20;100995.34;5042581;28;20045;-67
2022/09/10 10:46:29;;;;;;;8.63;3.53;;;;;;;18.63;68.15;101005.41;5041298;28;20041;-68
2022/09/10 10:49:09;;;;;;;8.18;3.78;;;;;;;18.82;69.13;101002.97;5040837;28;20548;-66
2022/09/10 10:51:47;;;;;;;6.00;3.35;;;;;;;18.75;67.93;101005.97;5043238;28;20450;-67
2022/09/10 10:54:34;;;;;;;8.23;3.53;;;;;;;18.61;68.16;100987.72;5069239;28;20048;-66
2022/09/10 10:57:11;;;;;;;8.98;3.88;;;;;;;18.69;68.41;101000.78;5080885;28;20052;-67
2022/09/10 10:59:51;;;;;;;7.78;3.38;;;;;;;18.77;68.02;101003.78;5069032;28;20048;-67
2022/09/10 11:02:28;;;;;;;7.47;3.42;;;;;;;18.74;68.18;101015.22;5070921;28;20063;-67
2022/09/10 11:05:01;;;;;;;10.45;3.70;;;;;;;18.74;68.23;101007.06;5083905;28;20170;-67
2022/09/10 11:07:34;;;;;;;9.82;3.70;;;;;;;18.77;68.51;101011.13;5081038;28;20052;-67
2022/09/10 11:10:12;;;;;;;7.35;3.38;;;;;;;18.81;68.62;101006.78;5083499;28;20044;-68
2022/09/10 11:12:45;;;;;;;6.65;3.17;;;;;;;18.85;68.26;100996.97;5081186;28;20048;-68
2022/09/10 11:15:29;;;;;;;7.32;3.40;;;;;;;18.86;68.24;100990.44;5082857;28;20094;-70
2022/09/10 11:18:04;;;;;;;9.88;3.78;;;;;;;18.96;68.29;100997.78;5071244;28;20160;-68
2022/09/10 11:20:40;;;;;;;8.00;3.10;;;;;;;19.01;68.66;100982.25;5080140;28;20493;-67
2022/09/10 11:23:19;;;;;;;8.00;3.05;;;;;;;19.03;68.14;100988.25;5084976;28;20049;-66
2022/09/10 11:25:55;;;;;;;6.20;3.10;;;;;;;19.11;68.83;101003.19;5078451;28;20068;-68
2022/09/10 11:28:27;;;;;;;5.75;3.25;;;;;;;18.97;68.39;100993.97;5092407;28;20048;-69
2022/09/10 11:31:02;;;;;;;5.03;2.90;;;;;;;18.96;68.57;100989.63;5084044;28;20075;-68
2022/09/10 11:33:38;;;;;;;7.93;2.60;;;;;;;19.01;68.44;100989.59;5089317;28;20053;-67
2022/09/10 11:36:14;;;;;;;4.95;2.22;;;;;;;19.13;68.54;100985.47;5076426;28;20048;-67
2022/09/10 11:38:51;;;;;;;4.93;2.65;;;;;;;19.18;68.15;100990.09;5095791;28;20519;-66
2022/09/10 11:41:24;;;;;;;5.70;2.65;;;;;;;19.07;68.50;100989.28;5089697;28;20052;-67